createdAt,value
2018-03-22T00:00:40.960Z,80.15
2018-03-22T00:01:40.927Z,79.96
2018-03-22T00:02:40.906Z,80.06
2018-03-22T00:03:40.870Z,80.06
2018-03-22T00:04:40.837Z,80.15
2018-03-22T00:05:40.821Z,80.25
2018-03-22T00:06:40.534Z,80.06
2018-03-22T00:07:40.498Z,80.06
2018-03-22T00:08:40.720Z,80.53
2018-03-22T00:09:40.693Z,80.53
2018-03-22T00:10:40.659Z,80.53
2018-03-22T00:11:40.378Z,80.44
2018-03-22T00:12:40.351Z,80.53
2018-03-22T00:13:40.567Z,80.34
2018-03-22T00:14:40.293Z,80.25
2018-03-22T00:15:40.504Z,80.34
2018-03-22T00:16:40.226Z,80.34
2018-03-22T00:17:40.196Z,80.44
2018-03-22T00:18:40.420Z,80.15
2018-03-22T00:19:40.134Z,80.44
2018-03-22T00:20:40.355Z,80.34
2018-03-22T00:21:40.332Z,80.63
2018-03-22T00:22:40.311Z,80.34
2018-03-22T00:23:40.266Z,80.44
2018-03-22T00:24:39.983Z,80.34
2018-03-22T00:25:40.205Z,81.1
2018-03-22T00:26:40.170Z,80.72
2018-03-22T00:27:39.893Z,80.72
2018-03-22T00:28:40.112Z,80.82
2018-03-22T00:29:40.082Z,81.1
2018-03-22T00:30:40.051Z,80.91
2018-03-22T00:31:40.023Z,80.91
2018-03-22T00:32:39.991Z,80.82
2018-03-22T00:33:39.962Z,81.01
2018-03-22T00:34:39.931Z,80.82
2018-03-22T00:35:39.901Z,81.01
2018-03-22T00:36:39.868Z,80.91
2018-03-22T00:37:39.834Z,80.91
2018-03-22T00:38:39.812Z,80.91
2018-03-22T00:39:39.773Z,80.91
2018-03-22T00:40:39.741Z,80.82
2018-03-22T00:41:39.465Z,80.91
2018-03-22T00:42:39.700Z,80.91
2018-03-22T00:43:39.653Z,80.82
2018-03-22T00:44:39.374Z,80.82
2018-03-22T00:45:39.595Z,80.72
2018-03-22T00:46:39.563Z,80.82
2018-03-22T00:47:39.532Z,80.82
2018-03-22T00:48:39.510Z,80.82
2018-03-22T00:49:39.471Z,81.01
2018-03-22T00:50:39.193Z,80.72
2018-03-22T00:51:39.419Z,81.1
2018-03-22T00:52:39.388Z,80.44
2018-03-22T00:53:39.364Z,80.25
2018-03-22T00:54:39.322Z,80.25
2018-03-22T00:55:39.288Z,80.44
2018-03-22T00:56:39.260Z,80.25
2018-03-22T00:57:39.230Z,80.34
2018-03-22T00:58:39.208Z,80.53
2018-03-22T00:59:39.172Z,80.25
2018-03-22T01:00:39.143Z,80.63
2018-03-22T01:01:39.109Z,80.63
2018-03-22T01:02:39.082Z,80.53
2018-03-22T01:03:39.049Z,80.06
2018-03-22T01:04:39.017Z,80.15
2018-03-22T01:05:38.994Z,80.06
2018-03-22T01:06:38.958Z,80.06
2018-03-22T01:07:38.929Z,80.06
2018-03-22T01:08:38.899Z,80.44
2018-03-22T01:09:38.864Z,79.96
2018-03-22T01:10:38.848Z,80.15
2018-03-22T01:11:38.810Z,79.87
2018-03-22T01:12:38.779Z,80.06
2018-03-22T01:13:38.746Z,80.06
2018-03-22T01:14:38.935Z,80.06
2018-03-22T01:15:38.683Z,79.96
2018-03-22T01:16:38.657Z,79.87
2018-03-22T01:17:38.625Z,79.68
2018-03-22T01:18:38.602Z,79.68
2018-03-22T01:19:38.567Z,79.58
2018-03-22T01:20:38.530Z,79.58
2018-03-22T01:21:38.503Z,79.58
2018-03-22T01:22:38.471Z,79.58
2018-03-22T01:23:38.450Z,79.58
2018-03-22T01:24:38.414Z,79.58
2018-03-22T01:25:38.383Z,79.77
2018-03-22T01:26:38.354Z,79.96
2018-03-22T01:27:38.324Z,79.77
2018-03-22T01:28:38.292Z,79.77
2018-03-22T01:29:38.261Z,79.77
2018-03-22T01:30:38.234Z,79.68
2018-03-22T01:31:37.953Z,79.96
2018-03-22T01:32:37.923Z,79.68
2018-03-22T01:33:38.147Z,79.58
2018-03-22T01:34:38.112Z,79.58
2018-03-22T01:35:38.086Z,79.58
2018-03-22T01:36:38.052Z,79.77
2018-03-22T01:37:38.021Z,79.77
2018-03-22T01:38:37.993Z,79.77
2018-03-22T01:39:37.963Z,79.68
2018-03-22T01:40:37.944Z,79.77
2018-03-22T01:41:37.899Z,79.77
2018-03-22T01:42:37.869Z,79.77
2018-03-22T01:43:37.840Z,79.77
2018-03-22T01:44:37.811Z,79.39
2018-03-22T01:45:37.782Z,79.3
2018-03-22T01:46:37.503Z,79.58
2018-03-22T01:47:37.471Z,79.68
2018-03-22T01:48:37.686Z,79.77
2018-03-22T01:49:37.662Z,79.58
2018-03-22T01:50:37.632Z,79.68
2018-03-22T01:51:37.601Z,79.58
2018-03-22T01:52:37.567Z,79.58
2018-03-22T01:53:37.535Z,79.58
2018-03-22T01:54:37.510Z,79.77
2018-03-22T01:55:37.481Z,79.87
2018-03-22T01:56:37.454Z,79.87
2018-03-22T01:57:37.421Z,79.77
2018-03-22T01:58:37.393Z,79.49
2018-03-22T01:59:37.359Z,79.49
2018-03-22T02:00:37.329Z,79.3
2018-03-22T02:01:37.302Z,79.39
2018-03-22T02:02:37.270Z,79.3
2018-03-22T02:03:37.238Z,79.49
2018-03-22T02:04:37.207Z,79.49
2018-03-22T02:05:36.936Z,79.58
2018-03-22T02:06:36.898Z,79.58
2018-03-22T02:07:37.118Z,79.49
2018-03-22T02:08:37.096Z,79.39
2018-03-22T02:09:36.806Z,79.3
2018-03-22T02:10:36.778Z,79.49
2018-03-22T02:11:36.749Z,79.11
2018-03-22T02:12:36.963Z,79.21
2018-03-22T02:13:36.936Z,79.21
2018-03-22T02:14:36.907Z,79.21
2018-03-22T02:15:36.875Z,79.02
2018-03-22T02:16:36.845Z,79.02
2018-03-22T02:17:36.814Z,78.92
2018-03-22T02:18:36.797Z,79.02
2018-03-22T02:19:36.507Z,79.02
2018-03-22T02:20:36.726Z,78.92
2018-03-22T02:21:36.698Z,78.92
2018-03-22T02:22:36.669Z,79.3
2018-03-22T02:23:36.646Z,78.54
2018-03-22T02:24:36.613Z,78.64
2018-03-22T02:25:36.581Z,78.83
2018-03-22T02:26:36.548Z,78.92
2018-03-22T02:27:36.271Z,79.11
2018-03-22T02:28:36.484Z,78.45
2018-03-22T02:29:36.460Z,78.83
2018-03-22T02:30:36.428Z,78.83
2018-03-22T02:31:36.396Z,78.64
2018-03-22T02:32:36.368Z,78.83
2018-03-22T02:33:36.337Z,78.35
2018-03-22T02:34:36.311Z,78.16
2018-03-22T02:35:36.284Z,78.49
2018-03-22T02:36:36.256Z,78.35
2018-03-22T02:37:35.969Z,78.45
2018-03-22T02:38:36.204Z,78.2
2018-03-22T02:39:36.161Z,78.3
2018-03-22T02:40:35.879Z,78.11
2018-03-22T02:41:36.099Z,78.3
2018-03-22T02:42:36.072Z,78.11
2018-03-22T02:43:36.039Z,78.11
2018-03-22T02:44:36.013Z,78.3
2018-03-22T02:45:35.988Z,78.58
2018-03-22T02:46:35.955Z,78.87
2018-03-22T02:47:35.919Z,78.49
2018-03-22T02:48:35.891Z,78.96
2018-03-22T02:49:35.609Z,79.06
2018-03-22T02:50:35.834Z,79.06
2018-03-22T02:51:35.799Z,79.25
2018-03-22T02:52:35.772Z,79.15
2018-03-22T02:53:35.740Z,79.63
2018-03-22T02:54:35.715Z,79.44
2018-03-22T02:55:35.693Z,79.34
2018-03-22T02:56:35.648Z,79.34
2018-03-22T02:57:35.617Z,79.53
2018-03-22T02:58:35.600Z,79.34
2018-03-22T02:59:35.562Z,79.63
2018-03-22T03:00:35.580Z,79.63
2018-03-22T03:01:35.505Z,79.58
2018-03-22T03:02:35.467Z,79.82
2018-03-22T03:03:35.437Z,79.63
2018-03-22T03:04:35.409Z,80
2018-03-22T03:05:35.392Z,80.1
2018-03-22T03:06:35.356Z,80.29
2018-03-22T03:07:35.318Z,80.06
2018-03-22T03:08:35.288Z,80.53
2018-03-22T03:09:35.257Z,80.57
2018-03-22T03:10:35.228Z,80.19
2018-03-22T03:11:35.199Z,80.34
2018-03-22T03:12:35.168Z,80.06
2018-03-22T03:13:35.139Z,80.25
2018-03-22T03:14:35.105Z,80.44
2018-03-22T03:15:35.088Z,81.01
2018-03-22T03:16:35.051Z,80.72
2018-03-22T03:17:35.019Z,81.01
2018-03-22T03:18:34.986Z,80.91
2018-03-22T03:19:34.965Z,80.63
2018-03-22T03:20:34.928Z,80.63
2018-03-22T03:21:34.898Z,80.91
2018-03-22T03:22:34.621Z,80.91
2018-03-22T03:23:34.848Z,81.48
2018-03-22T03:24:34.810Z,81.2
2018-03-22T03:25:34.529Z,81.48
2018-03-22T03:26:34.745Z,81.29
2018-03-22T03:27:34.720Z,81.1
2018-03-22T03:28:34.689Z,81.29
2018-03-22T03:29:34.664Z,81.52
2018-03-22T03:30:34.381Z,82.05
2018-03-22T03:31:34.357Z,81.86
2018-03-22T03:32:34.566Z,81.76
2018-03-22T03:33:34.546Z,81.86
2018-03-22T03:34:34.517Z,81.38
2018-03-22T03:35:34.480Z,81.67
2018-03-22T03:36:34.446Z,81.48
2018-03-22T03:37:34.421Z,82.14
2018-03-22T03:38:34.141Z,81.2
2018-03-22T03:39:34.362Z,81.76
2018-03-22T03:40:34.326Z,81.76
2018-03-22T03:41:34.052Z,81.76
2018-03-22T03:42:34.273Z,81.76
2018-03-22T03:43:33.990Z,81.57
2018-03-22T03:44:34.209Z,81.95
2018-03-22T03:45:34.430Z,82.05
2018-03-22T03:46:34.154Z,81.95
2018-03-22T03:47:34.120Z,81.76
2018-03-22T03:48:33.842Z,82.33
2018-03-22T03:49:34.060Z,82.62
2018-03-22T03:50:34.028Z,82.05
2018-03-22T03:51:33.752Z,82.71
2018-03-22T03:52:33.968Z,82.33
2018-03-22T03:53:33.937Z,82.81
2018-03-22T03:54:33.908Z,82.71
2018-03-22T03:55:33.882Z,82.52
2018-03-22T03:56:33.850Z,82.43
2018-03-22T03:57:33.819Z,83.18
2018-03-22T03:58:33.788Z,83.18
2018-03-22T03:59:33.763Z,83
2018-03-22T04:00:33.733Z,82.71
2018-03-22T04:01:33.701Z,83.56
2018-03-22T04:02:33.667Z,83.37
2018-03-22T04:03:33.639Z,83.18
2018-03-22T04:04:33.612Z,83.56
2018-03-22T04:05:33.581Z,83.47
2018-03-22T04:06:33.548Z,84.13
2018-03-22T04:07:33.519Z,83.94
2018-03-22T04:08:33.494Z,84.51
2018-03-22T04:09:33.466Z,84.32
2018-03-22T04:10:33.428Z,84.61
2018-03-22T04:11:33.396Z,84.51
2018-03-22T04:12:33.372Z,84.61
2018-03-22T04:13:33.537Z,84.99
2018-03-22T04:14:33.313Z,84.99
2018-03-22T04:15:33.278Z,84.7
2018-03-22T04:16:32.998Z,85.46
2018-03-22T04:17:33.218Z,84.99
2018-03-22T04:18:33.189Z,85.46
2018-03-22T04:19:33.168Z,85.74
2018-03-22T04:20:33.135Z,85.74
2018-03-22T04:21:33.103Z,85.93
2018-03-22T04:22:33.068Z,85.84
2018-03-22T04:23:33.036Z,86.12
2018-03-22T04:24:33.009Z,86.79
2018-03-22T04:25:32.973Z,86.88
2018-03-22T04:26:32.949Z,86.41
2018-03-22T04:27:32.918Z,86.79
2018-03-22T04:28:32.908Z,86.6
2018-03-22T04:29:32.857Z,86.79
2018-03-22T04:30:32.825Z,86.41
2018-03-22T04:31:32.793Z,86.79
2018-03-22T04:32:32.765Z,86.6
2018-03-22T04:33:32.738Z,86.5
2018-03-22T04:34:32.706Z,86.88
2018-03-22T04:35:32.672Z,86.69
2018-03-22T04:36:32.398Z,87.16
2018-03-22T04:37:32.614Z,87.07
2018-03-22T04:38:32.597Z,87.45
2018-03-22T04:39:32.551Z,87.45
2018-03-22T04:40:32.527Z,86.88
2018-03-22T04:41:32.491Z,87.64
2018-03-22T04:42:32.462Z,87.07
2018-03-22T04:43:32.434Z,86.88
2018-03-22T04:44:32.406Z,87.26
2018-03-22T04:45:32.369Z,87.07
2018-03-22T04:46:32.093Z,87.45
2018-03-22T04:47:32.311Z,87.45
2018-03-22T04:48:32.280Z,87.73
2018-03-22T04:49:32.251Z,87.83
2018-03-22T04:50:32.217Z,88.11
2018-03-22T04:51:32.190Z,88.11
2018-03-22T04:52:32.210Z,87.64
2018-03-22T04:53:32.128Z,87.83
2018-03-22T04:54:32.098Z,88.02
2018-03-22T04:55:32.071Z,88.21
2018-03-22T04:56:32.039Z,88.11
2018-03-22T04:57:32.007Z,88.4
2018-03-22T04:58:31.980Z,88.02
2018-03-22T04:59:31.948Z,88.02
2018-03-22T05:00:31.922Z,88.3
2018-03-22T05:01:31.889Z,88.78
2018-03-22T05:02:31.857Z,88.49
2018-03-22T05:03:31.830Z,88.4
2018-03-22T05:04:31.805Z,88.96
2018-03-22T05:05:31.774Z,89.44
2018-03-22T05:06:31.741Z,89.06
2018-03-22T05:07:31.705Z,89.25
2018-03-22T05:08:32.423Z,90.1
2018-03-22T05:09:31.398Z,89.82
2018-03-22T05:10:31.617Z,90.2
2018-03-22T05:11:31.337Z,90.48
2018-03-22T05:12:31.555Z,90.95
2018-03-22T05:13:31.276Z,91.24
2018-03-22T05:14:31.244Z,91.62
2018-03-22T05:15:31.468Z,91.76
2018-03-22T05:16:31.431Z,92.24
2018-03-22T05:17:31.404Z,93.04
2018-03-22T05:18:31.373Z,92.85
2018-03-22T05:19:31.095Z,92.71
2018-03-22T05:20:31.314Z,93.46
2018-03-22T05:21:31.283Z,93.46
2018-03-22T05:22:31.251Z,93.75
2018-03-22T05:23:31.223Z,94.04
2018-03-22T05:24:31.194Z,94.23
2018-03-22T05:25:31.160Z,94.79
2018-03-22T05:26:31.134Z,94.6
2018-03-22T05:27:31.106Z,95.26
2018-03-22T05:28:30.820Z,95.64
2018-03-22T05:29:31.037Z,95.55
2018-03-22T05:30:31.007Z,96.02
2018-03-22T05:31:30.978Z,95.83
2018-03-22T05:32:30.699Z,96.5
2018-03-22T05:33:30.915Z,96.31
2018-03-22T05:34:30.850Z,96.97
2018-03-22T05:35:31.075Z,96.69
2018-03-22T05:36:30.832Z,97.25
2018-03-22T05:37:30.794Z,97.44
2018-03-22T05:38:30.762Z,97.73
2018-03-22T05:39:30.733Z,97.44
2018-03-22T05:40:30.707Z,97.73
2018-03-22T05:41:30.677Z,98.01
2018-03-22T05:42:30.643Z,98.39
2018-03-22T05:43:30.608Z,98.68
2018-03-22T05:44:30.578Z,98.68
2018-03-22T05:45:30.547Z,98.86
2018-03-22T05:46:30.517Z,98.86
2018-03-22T05:47:30.494Z,99.24
2018-03-22T05:48:30.206Z,99.9
2018-03-22T05:49:30.422Z,99.9
2018-03-22T05:50:30.393Z,99.99
2018-03-22T05:51:30.361Z,99.99
2018-03-22T05:52:30.337Z,99.99
2018-03-22T05:53:30.051Z,99.99
2018-03-22T05:54:30.267Z,99.99
2018-03-22T05:55:30.238Z,99.99
2018-03-22T05:56:30.205Z,99.99
2018-03-22T05:57:30.181Z,99.99
2018-03-22T05:58:29.897Z,99.99
2018-03-22T05:59:30.112Z,99.99
2018-03-22T06:00:30.092Z,99.99
2018-03-22T06:01:29.806Z,99.99
2018-03-22T06:02:30.022Z,99.99
2018-03-22T06:03:30.095Z,99.99
2018-03-22T06:04:29.960Z,99.99
2018-03-22T06:05:29.931Z,99.99
2018-03-22T06:06:29.899Z,99.99
2018-03-22T06:07:29.876Z,99.99
2018-03-22T06:08:29.865Z,99.99
2018-03-22T06:09:29.807Z,99.99
2018-03-22T06:10:29.781Z,99.99
2018-03-22T06:11:29.743Z,99.99
2018-03-22T06:12:29.723Z,99.99
2018-03-22T06:13:29.434Z,99.99
2018-03-22T06:14:29.654Z,99.99
2018-03-22T06:15:29.623Z,99.99
2018-03-22T06:16:29.590Z,99.99
2018-03-22T06:17:29.919Z,99.99
2018-03-22T06:18:30.327Z,99.99
2018-03-22T06:19:30.110Z,99.99
2018-03-22T06:20:29.468Z,99.99
2018-03-22T06:21:29.443Z,99.99
2018-03-22T06:22:29.407Z,99.99
2018-03-22T06:23:29.131Z,99.99
2018-03-22T06:24:29.351Z,99.99
2018-03-22T06:25:29.314Z,99.99
2018-03-22T06:26:29.284Z,99.99
2018-03-22T06:27:29.250Z,99.99
2018-03-22T06:28:29.221Z,99.99
2018-03-22T06:29:29.203Z,99.99
2018-03-22T06:30:29.161Z,99.99
2018-03-22T06:31:29.138Z,99.99
2018-03-22T06:32:29.102Z,99.99
2018-03-22T06:33:29.069Z,99.99
2018-03-22T06:34:29.038Z,99.99
2018-03-22T06:35:28.761Z,99.99
2018-03-22T06:36:28.976Z,99.99
2018-03-22T06:37:28.951Z,99.99
2018-03-22T06:38:28.673Z,99.99
2018-03-22T06:39:28.888Z,99.99
2018-03-22T06:40:28.854Z,99.99
2018-03-22T06:41:28.823Z,99.99
2018-03-22T06:42:28.806Z,99.99
2018-03-22T06:43:28.765Z,99.99
2018-03-22T06:44:28.738Z,99.99
2018-03-22T06:45:28.704Z,99.99
2018-03-22T06:46:28.726Z,99.99
2018-03-22T06:47:28.402Z,99.99
2018-03-22T06:48:28.612Z,99.99
2018-03-22T06:49:28.334Z,99.99
2018-03-22T06:50:28.301Z,99.99
2018-03-22T06:51:28.520Z,99.99
2018-03-22T06:52:28.241Z,99.99
2018-03-22T06:53:28.461Z,99.99
2018-03-22T06:54:28.429Z,99.99
2018-03-22T06:55:28.399Z,99.99
2018-03-22T06:56:28.371Z,99.99
2018-03-22T06:57:28.338Z,99.99
2018-03-22T06:58:28.309Z,99.99
2018-03-22T06:59:28.282Z,99.99
2018-03-22T07:00:27.997Z,99.99
2018-03-22T07:01:28.334Z,99.99
2018-03-22T07:02:28.191Z,99.99
2018-03-22T07:03:27.912Z,99.99
2018-03-22T07:04:28.159Z,99.99
2018-03-22T07:05:28.216Z,99.99
2018-03-22T07:06:28.299Z,99.99
2018-03-22T07:07:27.786Z,99.99
2018-03-22T07:08:28.002Z,99.99
2018-03-22T07:09:27.994Z,99.99
2018-03-22T07:10:27.952Z,99.99
2018-03-22T07:11:27.862Z,99.99
2018-03-22T07:12:27.886Z,99.99
2018-03-22T07:13:27.604Z,99.99
2018-03-22T07:14:28.217Z,99.99
2018-03-22T07:15:27.876Z,99.99
2018-03-22T07:16:27.761Z,99.99
2018-03-22T07:17:27.732Z,99.99
2018-03-22T07:18:27.701Z,99.99
2018-03-22T07:19:27.682Z,99.99
2018-03-22T07:20:27.641Z,99.99
2018-03-22T07:21:27.360Z,99.99
2018-03-22T07:22:27.592Z,99.99
2018-03-22T07:23:27.547Z,99.99
2018-03-22T07:24:27.516Z,99.99
2018-03-22T07:25:27.557Z,99.99
2018-03-22T07:26:27.463Z,99.99
2018-03-22T07:27:27.429Z,99.99
2018-03-22T07:28:27.401Z,99.99
2018-03-22T07:29:27.117Z,99.99
2018-03-22T07:30:27.334Z,99.99
2018-03-22T07:31:27.312Z,99.99
2018-03-22T07:32:27.290Z,99.99
2018-03-22T07:33:26.994Z,99.99
2018-03-22T07:34:27.218Z,99.99
2018-03-22T07:35:27.299Z,99.99
2018-03-22T07:36:27.297Z,99.99
2018-03-22T07:37:27.123Z,99.99
2018-03-22T07:38:26.849Z,99.99
2018-03-22T07:39:27.145Z,99.99
2018-03-22T07:40:26.782Z,99.99
2018-03-22T07:41:27.005Z,99.99
2018-03-22T07:42:26.971Z,99.99
2018-03-22T07:43:26.942Z,99.99
2018-03-22T07:44:26.927Z,99.99
2018-03-22T07:45:26.630Z,99.99
2018-03-22T07:46:26.878Z,99.99
2018-03-22T07:47:26.604Z,99.99
2018-03-22T07:48:26.540Z,99.99
2018-03-22T07:49:26.766Z,99.99
2018-03-22T07:50:26.660Z,99.99
2018-03-22T07:51:26.700Z,99.99
2018-03-22T07:52:26.420Z,99.99
2018-03-22T07:53:26.927Z,99.99
2018-03-22T07:54:26.833Z,99.99
2018-03-22T07:55:26.331Z,99.99
2018-03-22T07:56:26.557Z,99.99
2018-03-22T07:57:26.355Z,99.99
2018-03-22T07:58:26.490Z,99.99
2018-03-22T07:59:26.459Z,99.99
2018-03-22T08:00:26.436Z,99.99
2018-03-22T08:01:26.401Z,99.99
2018-03-22T08:02:26.369Z,99.99
2018-03-22T08:03:26.335Z,99.99
2018-03-22T08:04:26.199Z,99.99
2018-03-22T08:05:26.226Z,99.99
2018-03-22T08:06:27.178Z,99.99
2018-03-22T08:07:26.444Z,99.99
2018-03-22T08:08:26.186Z,99.99
2018-03-22T08:09:26.223Z,99.99
2018-03-22T08:10:26.123Z,99.99
2018-03-22T08:11:26.091Z,99.99
2018-03-22T08:12:26.359Z,99.99
2018-03-22T08:13:25.783Z,99.99
2018-03-22T08:14:26.009Z,99.99
2018-03-22T08:15:25.970Z,99.99
2018-03-22T08:16:25.957Z,99.99
2018-03-22T08:17:25.914Z,99.99
2018-03-22T08:18:25.880Z,99.99
2018-03-22T08:19:25.853Z,99.99
2018-03-22T08:20:25.573Z,99.99
2018-03-22T08:21:25.800Z,99.99
2018-03-22T08:22:25.766Z,99.99
2018-03-22T08:23:26.025Z,99.99
2018-03-22T08:24:25.459Z,99.99
2018-03-22T08:25:25.674Z,99.99
2018-03-22T08:26:25.649Z,99.99
2018-03-22T08:27:25.617Z,99.99
2018-03-22T08:28:25.583Z,99.99
2018-03-22T08:29:25.743Z,99.99
2018-03-22T08:30:25.527Z,99.99
2018-03-22T08:31:25.248Z,99.99
2018-03-22T08:32:25.215Z,99.99
2018-03-22T08:33:25.435Z,99.99
2018-03-22T08:34:25.403Z,99.99
2018-03-22T08:35:25.375Z,99.99
2018-03-22T08:36:25.344Z,99.99
2018-03-22T08:37:25.067Z,99.99
2018-03-22T08:38:25.287Z,99.99
2018-03-22T08:39:25.278Z,99.99
2018-03-22T08:40:25.229Z,99.99
2018-03-22T08:41:25.294Z,99.99
2018-03-22T08:42:25.165Z,99.99
2018-03-22T08:43:25.137Z,99.99
2018-03-22T08:44:25.105Z,99.99
2018-03-22T08:45:25.077Z,99.99
2018-03-22T08:46:24.798Z,99.99
2018-03-22T08:47:25.024Z,99.99
2018-03-22T08:48:24.989Z,99.99
2018-03-22T08:49:24.973Z,99.99
2018-03-22T08:50:24.779Z,99.99
2018-03-22T08:51:24.903Z,99.99
2018-03-22T08:52:24.629Z,99.99
2018-03-22T08:53:24.917Z,99.99
2018-03-22T08:54:24.809Z,99.99
2018-03-22T08:55:24.535Z,99.99
2018-03-22T08:56:24.659Z,99.99
2018-03-22T08:57:24.818Z,99.99
2018-03-22T08:58:25.184Z,99.99
2018-03-22T08:59:24.822Z,99.99
2018-03-22T09:00:24.384Z,99.99
2018-03-22T09:01:24.354Z,99.99
2018-03-22T09:02:24.574Z,99.99
2018-03-22T09:03:24.543Z,99.99
2018-03-22T09:04:24.511Z,99.99
2018-03-22T09:05:24.504Z,99.99
2018-03-22T09:06:24.466Z,99.99
2018-03-22T09:07:24.422Z,99.99
2018-03-22T09:08:24.391Z,99.99
2018-03-22T09:09:24.369Z,99.99
2018-03-22T09:10:24.335Z,99.99
2018-03-22T09:11:24.657Z,99.99
2018-03-22T09:12:24.275Z,99.99
2018-03-22T09:13:24.248Z,99.99
2018-03-22T09:14:24.435Z,99.99
2018-03-22T09:15:24.733Z,99.99
2018-03-22T09:16:23.943Z,99.99
2018-03-22T09:17:24.132Z,99.99
2018-03-22T09:18:24.248Z,99.99
2018-03-22T09:19:24.311Z,99.99
2018-03-22T09:20:25.164Z,99.99
2018-03-22T09:21:25.115Z,99.99
2018-03-22T09:22:24.596Z,99.99
2018-03-22T09:23:23.952Z,99.99
2018-03-22T09:24:23.922Z,99.99
2018-03-22T09:25:23.894Z,99.99
2018-03-22T09:26:23.615Z,99.99
2018-03-22T09:27:23.845Z,99.99
2018-03-22T09:28:23.555Z,99.99
2018-03-22T09:29:23.783Z,99.99
2018-03-22T09:30:23.750Z,99.99
2018-03-22T09:31:23.718Z,99.99
2018-03-22T09:32:23.686Z,99.99
2018-03-22T09:33:23.672Z,99.99
2018-03-22T09:34:23.629Z,99.99
2018-03-22T09:35:23.355Z,99.99
2018-03-22T09:36:23.571Z,99.99
2018-03-22T09:37:23.552Z,99.99
2018-03-22T09:38:23.264Z,99.99
2018-03-22T09:39:23.485Z,99.99
2018-03-22T09:40:23.491Z,99.99
2018-03-22T09:41:23.176Z,99.99
2018-03-22T09:42:23.400Z,99.99
2018-03-22T09:43:23.374Z,99.99
2018-03-22T09:44:23.346Z,99.99
2018-03-22T09:45:23.310Z,99.99
2018-03-22T09:46:23.286Z,99.99
2018-03-22T09:47:23.254Z,99.99
2018-03-22T09:48:23.242Z,99.99
2018-03-22T09:49:23.196Z,99.99
2018-03-22T09:50:23.166Z,99.99
2018-03-22T09:51:23.140Z,99.99
2018-03-22T09:52:23.116Z,99.99
2018-03-22T09:53:23.146Z,99.99
2018-03-22T09:54:23.053Z,99.99
2018-03-22T09:55:23.021Z,99.99
2018-03-22T09:56:22.998Z,99.99
2018-03-22T09:57:22.965Z,99.99
2018-03-22T09:58:22.941Z,99.99
2018-03-22T09:59:22.909Z,99.99
2018-03-22T10:00:22.630Z,99.99
2018-03-22T10:01:22.853Z,99.99
2018-03-22T10:02:22.824Z,99.99
2018-03-22T10:03:22.793Z,99.99
2018-03-22T10:04:22.768Z,99.99
2018-03-22T10:05:22.737Z,99.99
2018-03-22T10:06:22.595Z,99.99
2018-03-22T10:07:22.681Z,99.99
2018-03-22T10:08:22.650Z,99.99
2018-03-22T10:09:22.622Z,99.99
2018-03-22T10:10:22.592Z,99.99
2018-03-22T10:11:22.318Z,99.99
2018-03-22T10:12:22.538Z,99.99
2018-03-22T10:13:22.507Z,99.99
2018-03-22T10:14:22.231Z,99.99
2018-03-22T10:15:22.451Z,99.99
2018-03-22T10:16:22.485Z,99.99
2018-03-22T10:17:22.405Z,99.99
2018-03-22T10:18:22.413Z,99.99
2018-03-22T10:19:22.343Z,99.99
2018-03-22T10:20:22.310Z,99.99
2018-03-22T10:21:22.283Z,99.99
2018-03-22T10:22:22.257Z,99.99
2018-03-22T10:23:22.227Z,99.99
2018-03-22T10:24:22.199Z,99.99
2018-03-22T10:25:22.413Z,99.99
2018-03-22T10:26:22.143Z,99.99
2018-03-22T10:27:22.115Z,99.99
2018-03-22T10:28:22.086Z,99.99
2018-03-22T10:29:21.811Z,99.99
2018-03-22T10:30:22.027Z,99.99
2018-03-22T10:31:22.166Z,99.99
2018-03-22T10:32:21.796Z,99.99
2018-03-22T10:33:21.943Z,99.99
2018-03-22T10:34:21.672Z,99.99
2018-03-22T10:35:21.753Z,99.99
2018-03-22T10:36:22.121Z,99.99
2018-03-22T10:37:21.833Z,99.99
2018-03-22T10:38:21.803Z,99.99
2018-03-22T10:39:22.049Z,99.99
2018-03-22T10:40:21.752Z,99.99
2018-03-22T10:41:21.727Z,99.99
2018-03-22T10:42:21.693Z,99.99
2018-03-22T10:43:21.666Z,99.99
2018-03-22T10:44:21.638Z,99.99
2018-03-22T10:45:21.358Z,99.99
2018-03-22T10:46:21.582Z,99.99
2018-03-22T10:47:21.602Z,99.99
2018-03-22T10:48:21.525Z,99.99
2018-03-22T10:49:21.247Z,99.99
2018-03-22T10:50:21.472Z,99.99
2018-03-22T10:51:21.593Z,99.99
2018-03-22T10:52:21.466Z,99.99
2018-03-22T10:53:21.440Z,99.99
2018-03-22T10:54:21.350Z,99.99
2018-03-22T10:55:21.323Z,99.99
2018-03-22T10:56:21.298Z,99.99
2018-03-22T10:57:21.269Z,99.99
2018-03-22T10:58:21.240Z,99.99
2018-03-22T10:59:21.212Z,99.99
2018-03-22T11:00:20.937Z,99.99
2018-03-22T11:01:21.155Z,99.99
2018-03-22T11:02:21.126Z,99.99
2018-03-22T11:03:21.100Z,99.99
2018-03-22T11:04:21.074Z,99.99
2018-03-22T11:05:21.043Z,99.99
2018-03-22T11:06:21.012Z,99.99
2018-03-22T11:07:20.987Z,99.99
2018-03-22T11:08:20.963Z,99.99
2018-03-22T11:09:20.928Z,99.99
2018-03-22T11:10:20.652Z,99.99
2018-03-22T11:11:20.873Z,99.99
2018-03-22T11:12:20.842Z,99.99
2018-03-22T11:13:20.815Z,99.99
2018-03-22T11:14:20.784Z,99.99
2018-03-22T11:15:20.800Z,99.99
2018-03-22T11:16:20.730Z,99.99
2018-03-22T11:17:20.699Z,99.99
2018-03-22T11:18:20.685Z,99.99
2018-03-22T11:19:20.644Z,99.99
2018-03-22T11:20:20.368Z,99.99
2018-03-22T11:21:20.587Z,99.99
2018-03-22T11:22:20.559Z,99.99
2018-03-22T11:23:20.281Z,99.99
2018-03-22T11:24:20.501Z,99.99
2018-03-22T11:25:20.224Z,99.99
2018-03-22T11:26:20.451Z,99.99
2018-03-22T11:27:20.415Z,99.99
2018-03-22T11:28:20.393Z,99.99
2018-03-22T11:29:20.362Z,99.99
2018-03-22T11:30:20.359Z,99.99
2018-03-22T11:31:20.303Z,99.99
2018-03-22T11:32:20.280Z,99.99
2018-03-22T11:33:20.255Z,99.99
2018-03-22T11:34:20.222Z,99.99
2018-03-22T11:35:20.188Z,99.99
2018-03-22T11:36:20.164Z,99.99
2018-03-22T11:37:19.885Z,99.99
2018-03-22T11:38:20.108Z,99.99
2018-03-22T11:39:20.087Z,99.99
2018-03-22T11:40:20.048Z,99.99
2018-03-22T11:41:20.095Z,99.99
2018-03-22T11:42:19.744Z,99.99
2018-03-22T11:43:19.965Z,99.99
2018-03-22T11:44:19.945Z,99.99
2018-03-22T11:45:19.918Z,99.99
2018-03-22T11:46:19.884Z,99.99
2018-03-22T11:47:19.859Z,99.99
2018-03-22T11:48:19.827Z,99.99
2018-03-22T11:49:19.797Z,99.99
2018-03-22T11:50:19.799Z,99.99
2018-03-22T11:51:19.492Z,99.99
2018-03-22T11:52:19.716Z,99.99
2018-03-22T11:53:19.685Z,99.99
2018-03-22T11:54:19.409Z,99.99
2018-03-22T11:55:19.637Z,99.99
2018-03-22T11:56:19.613Z,99.99
2018-03-22T11:57:19.575Z,99.99
2018-03-22T11:58:19.545Z,99.99
2018-03-22T11:59:19.549Z,99.99
2018-03-22T12:00:19.492Z,99.99
2018-03-22T12:01:19.467Z,99.99
2018-03-22T12:02:19.441Z,99.99
2018-03-22T12:03:19.163Z,99.99
2018-03-22T12:04:19.128Z,99.99
2018-03-22T12:05:19.357Z,99.99
2018-03-22T12:06:19.075Z,99.99
2018-03-22T12:07:19.343Z,99.99
2018-03-22T12:08:19.270Z,99.99
2018-03-22T12:09:19.838Z,99.99
2018-03-22T12:10:19.221Z,99.99
2018-03-22T12:11:19.195Z,99.99
2018-03-22T12:12:19.157Z,99.99
2018-03-22T12:13:19.301Z,99.99
2018-03-22T12:14:19.105Z,99.99
2018-03-22T12:15:19.998Z,99.99
2018-03-22T12:16:19.052Z,99.99
2018-03-22T12:17:18.772Z,99.99
2018-03-22T12:18:18.994Z,99.99
2018-03-22T12:19:18.988Z,99.99
2018-03-22T12:20:18.948Z,99.99
2018-03-22T12:21:18.915Z,99.99
2018-03-22T12:22:18.900Z,99.99
2018-03-22T12:23:18.859Z,99.99
2018-03-22T12:24:18.586Z,99.99
2018-03-22T12:25:18.812Z,99.99
2018-03-22T12:26:18.783Z,99.99
2018-03-22T12:27:18.752Z,99.99
2018-03-22T12:28:18.730Z,99.99
2018-03-22T12:29:18.706Z,99.99
2018-03-22T12:30:18.674Z,99.99
2018-03-22T12:31:18.820Z,99.99
2018-03-22T12:32:18.695Z,99.99
2018-03-22T12:33:18.592Z,99.99
2018-03-22T12:34:18.564Z,99.99
2018-03-22T12:35:18.541Z,99.99
2018-03-22T12:36:18.513Z,99.99
2018-03-22T12:37:18.237Z,99.99
2018-03-22T12:38:18.460Z,99.99
2018-03-22T12:39:18.438Z,99.99
2018-03-22T12:40:18.404Z,99.99
2018-03-22T12:41:18.133Z,99.99
2018-03-22T12:42:18.354Z,99.99
2018-03-22T12:43:18.535Z,99.99
2018-03-22T12:44:18.311Z,99.99
2018-03-22T12:45:18.024Z,99.99
2018-03-22T12:46:18.249Z,99.99
2018-03-22T12:47:18.221Z,99.99
2018-03-22T12:48:18.196Z,99.99
2018-03-22T12:49:17.921Z,99.99
2018-03-22T12:50:18.193Z,99.99
2018-03-22T12:51:18.119Z,99.99
2018-03-22T12:52:18.098Z,99.99
2018-03-22T12:53:18.064Z,99.99